sensor_id;sensor_type;location;lat;lon;timestamp;pressure;altitude;pressure_sealevel;temperature;humidity
64610;BME280;51019;46.090;6.350;2023-04-03T00:00:45;96800.63;;;4.92;100.00
64610;BME280;51019;46.090;6.350;2023-04-03T00:03:14;96792.41;;;4.85;100.00
64610;BME280;51019;46.090;6.350;2023-04-03T00:05:42;96802.28;;;4.93;100.00
64610;BME280;51019;46.090;6.350;2023-04-03T00:08:09;96802.28;;;4.93;100.00
64610;BME280;51019;46.090;6.350;2023-04-03T00:10:37;96735.44;;;4.57;100.00
64610;BME280;51019;46.090;6.350;2023-04-03T00:13:07;96796.66;;;4.86;100.00
64610;BME280;51019;46.090;6.350;2023-04-03T00:15:35;96714.69;;;4.30;100.00
64610;BME280;51019;46.090;6.350;2023-04-03T00:18:03;96791.56;;;4.85;100.00
64610;BME280;51019;46.090;6.350;2023-04-03T00:20:31;96795.94;;;4.84;100.00
64610;BME280;51019;46.090;6.350;2023-04-03T00:22:58;96795.19;;;4.82;100.00
64610;BME280;51019;46.090;6.350;2023-04-03T00:25:26;96781.56;;;4.79;100.00
64610;BME280;51019;46.090;6.350;2023-04-03T00:27:54;96806.19;;;4.86;100.00
64610;BME280;51019;46.090;6.350;2023-04-03T00:30:23;96777.41;;;4.76;100.00
64610;BME280;51019;46.090;6.350;2023-04-03T00:32:51;96767.81;;;4.64;100.00
64610;BME280;51019;46.090;6.350;2023-04-03T00:35:20;96751.53;;;4.62;100.00
64610;BME280;51019;46.090;6.350;2023-04-03T00:37:51;96766.56;;;4.96;100.00
64610;BME280;51019;46.090;6.350;2023-04-03T00:40:19;96760.00;;;4.91;100.00
64610;BME280;51019;46.090;6.350;2023-04-03T00:42:51;96784.00;;;4.94;100.00
64610;BME280;51019;46.090;6.350;2023-04-03T00:45:36;96743.59;;;5.03;100.00
64610;BME280;51019;46.090;6.350;2023-04-03T00:48:08;96780.81;;;5.16;100.00
64610;BME280;51019;46.090;6.350;2023-04-03T00:50:40;96773.84;;;5.29;100.00
64610;BME280;51019;46.090;6.350;2023-04-03T00:53:17;96779.16;;;5.28;100.00
64610;BME280;51019;46.090;6.350;2023-04-03T00:55:47;96780.69;;;5.05;100.00
64610;BME280;51019;46.090;6.350;2023-04-03T00:58:18;96721.88;;;4.91;100.00
64610;BME280;51019;46.090;6.350;2023-04-03T01:00:53;96772.47;;;5.24;100.00
64610;BME280;51019;46.090;6.350;2023-04-03T01:03:23;96776.94;;;5.22;100.00
64610;BME280;51019;46.090;6.350;2023-04-03T01:05:51;96774.88;;;5.27;100.00
64610;BME280;51019;46.090;6.350;2023-04-03T01:08:18;96769.69;;;5.14;100.00
64610;BME280;51019;46.090;6.350;2023-04-03T01:10:47;96772.16;;;5.03;100.00
64610;BME280;51019;46.090;6.350;2023-04-03T01:13:22;96768.31;;;4.96;100.00
64610;BME280;51019;46.090;6.350;2023-04-03T01:15:52;96710.13;;;4.73;100.00
64610;BME280;51019;46.090;6.350;2023-04-03T01:18:20;96706.16;;;4.80;100.00
64610;BME280;51019;46.090;6.350;2023-04-03T01:21:24;96725.28;;;4.79;100.00
64610;BME280;51019;46.090;6.350;2023-04-03T01:24:07;96739.63;;;4.72;100.00
64610;BME280;51019;46.090;6.350;2023-04-03T01:26:39;96758.22;;;4.79;100.00
64610;BME280;51019;46.090;6.350;2023-04-03T01:29:06;96727.94;;;4.40;100.00
64610;BME280;51019;46.090;6.350;2023-04-03T01:31:48;96757.72;;;4.47;100.00
64610;BME280;51019;46.090;6.350;2023-04-03T01:34:16;96762.13;;;4.59;100.00
64610;BME280;51019;46.090;6.350;2023-04-03T01:36:43;96757.31;;;4.40;100.00
64610;BME280;51019;46.090;6.350;2023-04-03T01:39:11;96756.53;;;4.25;100.00
64610;BME280;51019;46.090;6.350;2023-04-03T01:41:38;96758.38;;;4.23;100.00
64610;BME280;51019;46.090;6.350;2023-04-03T01:44:05;96755.38;;;4.29;100.00
64610;BME280;51019;46.090;6.350;2023-04-03T01:46:32;96741.97;;;4.23;100.00
64610;BME280;51019;46.090;6.350;2023-04-03T01:49:02;96756.81;;;4.48;100.00
64610;BME280;51019;46.090;6.350;2023-04-03T01:51:29;96758.97;;;4.54;100.00
64610;BME280;51019;46.090;6.350;2023-04-03T01:53:57;96751.94;;;4.56;100.00
64610;BME280;51019;46.090;6.350;2023-04-03T01:56:26;96754.34;;;4.59;100.00
64610;BME280;51019;46.090;6.350;2023-04-03T01:58:53;96756.94;;;4.59;100.00
64610;BME280;51019;46.090;6.350;2023-04-03T02:01:21;96733.25;;;4.51;100.00
64610;BME280;51019;46.090;6.350;2023-04-03T02:03:48;96761.94;;;4.74;100.00
64610;BME280;51019;46.090;6.350;2023-04-03T02:06:18;96757.81;;;4.85;100.00
64610;BME280;51019;46.090;6.350;2023-04-03T02:08:46;96737.13;;;4.70;100.00
64610;BME280;51019;46.090;6.350;2023-04-03T02:11:14;96736.09;;;4.73;100.00
64610;BME280;51019;46.090;6.350;2023-04-03T02:13:41;96694.41;;;4.49;100.00
64610;BME280;51019;46.090;6.350;2023-04-03T02:16:10;96717.50;;;4.79;100.00
64610;BME280;51019;46.090;6.350;2023-04-03T02:18:39;96699.91;;;4.57;100.00
64610;BME280;51019;46.090;6.350;2023-04-03T02:21:06;96739.50;;;4.86;100.00
64610;BME280;51019;46.090;6.350;2023-04-03T02:23:35;96745.25;;;4.91;100.00
64610;BME280;51019;46.090;6.350;2023-04-03T02:26:07;96721.75;;;4.80;100.00
64610;BME280;51019;46.090;6.350;2023-04-03T02:28:35;96737.25;;;4.82;100.00
64610;BME280;51019;46.090;6.350;2023-04-03T02:31:05;96649.50;;;4.22;100.00
64610;BME280;51019;46.090;6.350;2023-04-03T02:33:33;96743.88;;;4.86;100.00
64610;BME280;51019;46.090;6.350;2023-04-03T02:36:02;96739.00;;;4.81;100.00
64610;BME280;51019;46.090;6.350;2023-04-03T02:38:31;96655.25;;;4.40;100.00
64610;BME280;51019;46.090;6.350;2023-04-03T02:41:02;96737.44;;;4.91;100.00
64610;BME280;51019;46.090;6.350;2023-04-03T02:43:29;96737.44;;;4.91;100.00
64610;BME280;51019;46.090;6.350;2023-04-03T02:45:57;96614.22;;;4.19;100.00
64610;BME280;51019;46.090;6.350;2023-04-03T02:48:24;96733.09;;;5.04;100.00
64610;BME280;51019;46.090;6.350;2023-04-03T02:50:52;96730.81;;;5.13;100.00
64610;BME280;51019;46.090;6.350;2023-04-03T02:53:19;96732.25;;;4.91;100.00
64610;BME280;51019;46.090;6.350;2023-04-03T02:55:47;96737.66;;;5.01;100.00
64610;BME280;51019;46.090;6.350;2023-04-03T02:58:16;96732.91;;;5.07;100.00
64610;BME280;51019;46.090;6.350;2023-04-03T03:00:44;96728.41;;;4.97;100.00
64610;BME280;51019;46.090;6.350;2023-04-03T03:03:11;96697.63;;;4.65;100.00
64610;BME280;51019;46.090;6.350;2023-04-03T03:05:39;96737.34;;;4.93;100.00
64610;BME280;51019;46.090;6.350;2023-04-03T03:08:06;96691.41;;;4.68;100.00
64610;BME280;51019;46.090;6.350;2023-04-03T03:10:34;96723.22;;;4.84;100.00
64610;BME280;51019;46.090;6.350;2023-04-03T03:13:01;96723.53;;;4.80;100.00
64610;BME280;51019;46.090;6.350;2023-04-03T03:15:30;96731.22;;;4.81;100.00
64610;BME280;51019;46.090;6.350;2023-04-03T03:17:58;96727.88;;;4.79;100.00
64610;BME280;51019;46.090;6.350;2023-04-03T03:20:25;96725.06;;;4.69;100.00
64610;BME280;51019;46.090;6.350;2023-04-03T03:22:53;96653.88;;;4.21;100.00
64610;BME280;51019;46.090;6.350;2023-04-03T03:25:20;96730.56;;;4.65;100.00
64610;BME280;51019;46.090;6.350;2023-04-03T03:27:47;96613.94;;;3.84;100.00
64610;BME280;51019;46.090;6.350;2023-04-03T03:30:15;96707.38;;;4.49;100.00
64610;BME280;51019;46.090;6.350;2023-04-03T03:32:44;96717.06;;;4.60;100.00
64610;BME280;51019;46.090;6.350;2023-04-03T03:35:11;96720.50;;;4.73;100.00
64610;BME280;51019;46.090;6.350;2023-04-03T03:37:39;96711.97;;;4.58;100.00
64610;BME280;51019;46.090;6.350;2023-04-03T03:40:08;96725.56;;;4.74;100.00
64610;BME280;51019;46.090;6.350;2023-04-03T03:42:36;96678.84;;;4.49;100.00
64610;BME280;51019;46.090;6.350;2023-04-03T03:45:05;96716.53;;;4.67;100.00
64610;BME280;51019;46.090;6.350;2023-04-03T03:47:32;96720.41;;;4.87;100.00
64610;BME280;51019;46.090;6.350;2023-04-03T03:50:02;96720.09;;;4.79;100.00
64610;BME280;51019;46.090;6.350;2023-04-03T03:52:29;96713.13;;;4.80;100.00
64610;BME280;51019;46.090;6.350;2023-04-03T03:54:56;96720.94;;;4.92;100.00
64610;BME280;51019;46.090;6.350;2023-04-03T03:57:24;96677.91;;;4.50;100.00
64610;BME280;51019;46.090;6.350;2023-04-03T03:59:54;96634.38;;;4.16;100.00
64610;BME280;51019;46.090;6.350;2023-04-03T04:02:21;96715.81;;;4.78;100.00
64610;BME280;51019;46.090;6.350;2023-04-03T04:04:49;96714.25;;;4.75;100.00
64610;BME280;51019;46.090;6.350;2023-04-03T04:07:17;96709.38;;;4.71;100.00
64610;BME280;51019;46.090;6.350;2023-04-03T04:09:45;96717.91;;;4.86;100.00
64610;BME280;51019;46.090;6.350;2023-04-03T04:12:12;96657.97;;;4.51;100.00
64610;BME280;51019;46.090;6.350;2023-04-03T04:14:39;96715.94;;;4.77;100.00
64610;BME280;51019;46.090;6.350;2023-04-03T04:17:06;96668.84;;;4.43;100.00
64610;BME280;51019;46.090;6.350;2023-04-03T04:19:33;96620.25;;;4.32;100.00
64610;BME280;51019;46.090;6.350;2023-04-03T04:22:01;96677.91;;;4.63;100.00
64610;BME280;51019;46.090;6.350;2023-04-03T04:24:30;96569.56;;;3.89;100.00
64610;BME280;51019;46.090;6.350;2023-04-03T04:26:57;96648.44;;;4.51;100.00
64610;BME280;51019;46.090;6.350;2023-04-03T04:29:25;96689.66;;;4.81;100.00
64610;BME280;51019;46.090;6.350;2023-04-03T04:31:52;96710.94;;;4.86;100.00
64610;BME280;51019;46.090;6.350;2023-04-03T04:34:20;96716.13;;;4.86;100.00
64610;BME280;51019;46.090;6.350;2023-04-03T04:36:48;96713.88;;;4.82;100.00
64610;BME280;51019;46.090;6.350;2023-04-03T04:39:16;96674.59;;;4.61;100.00
64610;BME280;51019;46.090;6.350;2023-04-03T04:41:45;96706.91;;;4.82;100.00
64610;BME280;51019;46.090;6.350;2023-04-03T04:44:12;96699.63;;;4.87;100.00
64610;BME280;51019;46.090;6.350;2023-04-03T04:46:40;96713.44;;;5.00;100.00
64610;BME280;51019;46.090;6.350;2023-04-03T04:49:07;96683.72;;;4.66;100.00
64610;BME280;51019;46.090;6.350;2023-04-03T04:51:34;96627.13;;;4.33;100.00
64610;BME280;51019;46.090;6.350;2023-04-03T04:54:03;96710.63;;;4.78;100.00
64610;BME280;51019;46.090;6.350;2023-04-03T04:56:30;96711.47;;;4.79;100.00
64610;BME280;51019;46.090;6.350;2023-04-03T04:58:59;96719.28;;;4.91;100.00
64610;BME280;51019;46.090;6.350;2023-04-03T05:01:26;96710.75;;;4.89;100.00
64610;BME280;51019;46.090;6.350;2023-04-03T05:03:54;96716.78;;;5.02;100.00
64610;BME280;51019;46.090;6.350;2023-04-03T05:06:21;96717.69;;;4.89;100.00
64610;BME280;51019;46.090;6.350;2023-04-03T05:08:49;96720.00;;;4.93;100.00
64610;BME280;51019;46.090;6.350;2023-04-03T05:11:16;96726.53;;;4.99;100.00
64610;BME280;51019;46.090;6.350;2023-04-03T05:13:43;96716.97;;;4.87;100.00
64610;BME280;51019;46.090;6.350;2023-04-03T05:16:12;96705.97;;;4.83;100.00
64610;BME280;51019;46.090;6.350;2023-04-03T05:18:40;96714.59;;;4.96;100.00
64610;BME280;51019;46.090;6.350;2023-04-03T05:21:07;96721.66;;;4.94;100.00
64610;BME280;51019;46.090;6.350;2023-04-03T05:23:35;96709.81;;;5.03;100.00
64610;BME280;51019;46.090;6.350;2023-04-03T05:26:02;96719.78;;;5.09;100.00
64610;BME280;51019;46.090;6.350;2023-04-03T05:28:29;96713.66;;;4.97;100.00
64610;BME280;51019;46.090;6.350;2023-04-03T05:30:58;96685.59;;;4.90;100.00
64610;BME280;51019;46.090;6.350;2023-04-03T05:33:28;96712.63;;;5.13;100.00
64610;BME280;51019;46.090;6.350;2023-04-03T05:35:55;96722.69;;;5.30;100.00
64610;BME280;51019;46.090;6.350;2023-04-03T05:38:22;96700.25;;;5.03;100.00
64610;BME280;51019;46.090;6.350;2023-04-03T05:40:50;96614.97;;;4.47;100.00
64610;BME280;51019;46.090;6.350;2023-04-03T05:43:17;96714.38;;;5.12;100.00
64610;BME280;51019;46.090;6.350;2023-04-03T05:45:46;96714.38;;;5.25;100.00
64610;BME280;51019;46.090;6.350;2023-04-03T05:48:14;96708.97;;;5.40;100.00
64610;BME280;51019;46.090;6.350;2023-04-03T05:50:43;96714.56;;;5.34;100.00
64610;BME280;51019;46.090;6.350;2023-04-03T05:53:14;96710.41;;;5.32;100.00
64610;BME280;51019;46.090;6.350;2023-04-03T05:55:44;96695.25;;;5.13;100.00
64610;BME280;51019;46.090;6.350;2023-04-03T05:58:11;96716.22;;;5.35;100.00
64610;BME280;51019;46.090;6.350;2023-04-03T06:00:38;96712.91;;;5.33;100.00
64610;BME280;51019;46.090;6.350;2023-04-03T06:03:06;96708.72;;;5.56;100.00
64610;BME280;51019;46.090;6.350;2023-04-03T06:05:33;96663.69;;;5.19;100.00
64610;BME280;51019;46.090;6.350;2023-04-03T06:08:03;96687.53;;;5.37;100.00
64610;BME280;51019;46.090;6.350;2023-04-03T06:10:31;96713.59;;;5.61;100.00
64610;BME280;51019;46.090;6.350;2023-04-03T06:12:58;96717.53;;;5.66;100.00
64610;BME280;51019;46.090;6.350;2023-04-03T06:15:26;96718.53;;;5.76;100.00
64610;BME280;51019;46.090;6.350;2023-04-03T06:17:53;96719.34;;;5.90;100.00
64610;BME280;51019;46.090;6.350;2023-04-03T06:20:20;96676.09;;;5.52;100.00
64610;BME280;51019;46.090;6.350;2023-04-03T06:22:48;96720.72;;;5.82;100.00
64610;BME280;51019;46.090;6.350;2023-04-03T06:25:18;96718.16;;;6.06;100.00
64610;BME280;51019;46.090;6.350;2023-04-03T06:27:46;96720.00;;;6.17;100.00
64610;BME280;51019;46.090;6.350;2023-04-03T06:30:14;96719.22;;;6.28;100.00
64610;BME280;51019;46.090;6.350;2023-04-03T06:32:41;96715.72;;;6.16;100.00
64610;BME280;51019;46.090;6.350;2023-04-03T06:35:09;96719.78;;;6.20;100.00
64610;BME280;51019;46.090;6.350;2023-04-03T06:37:37;96716.66;;;6.15;100.00
64610;BME280;51019;46.090;6.350;2023-04-03T06:40:06;96714.72;;;6.30;100.00
64610;BME280;51019;46.090;6.350;2023-04-03T06:42:36;96721.66;;;6.42;100.00
64610;BME280;51019;46.090;6.350;2023-04-03T06:45:05;96721.75;;;6.40;100.00
64610;BME280;51019;46.090;6.350;2023-04-03T06:47:33;96723.16;;;6.44;100.00
64610;BME280;51019;46.090;6.350;2023-04-03T06:50:00;96721.91;;;6.50;100.00
64610;BME280;51019;46.090;6.350;2023-04-03T06:52:28;96705.34;;;6.51;100.00
64610;BME280;51019;46.090;6.350;2023-04-03T06:54:56;96720.78;;;6.65;100.00
64610;BME280;51019;46.090;6.350;2023-04-03T06:57:25;96717.16;;;6.55;100.00
64610;BME280;51019;46.090;6.350;2023-04-03T06:59:54;96716.84;;;6.60;100.00
64610;BME280;51019;46.090;6.350;2023-04-03T07:02:22;96652.00;;;6.33;100.00
64610;BME280;51019;46.090;6.350;2023-04-03T07:04:49;96721.31;;;7.04;100.00
64610;BME280;51019;46.090;6.350;2023-04-03T07:07:16;96716.78;;;6.83;100.00
64610;BME280;51019;46.090;6.350;2023-04-03T07:09:44;96685.34;;;6.51;100.00
64610;BME280;51019;46.090;6.350;2023-04-03T07:12:13;96710.72;;;6.72;100.00
64610;BME280;51019;46.090;6.350;2023-04-03T07:14:41;96715.03;;;6.84;100.00
64610;BME280;51019;46.090;6.350;2023-04-03T07:17:11;96705.03;;;6.78;100.00
64610;BME280;51019;46.090;6.350;2023-04-03T07:19:38;96710.66;;;6.84;100.00
64610;BME280;51019;46.090;6.350;2023-04-03T07:22:05;96706.63;;;6.91;100.00
64610;BME280;51019;46.090;6.350;2023-04-03T07:24:33;96710.19;;;7.02;100.00
64610;BME280;51019;46.090;6.350;2023-04-03T07:27:01;96719.22;;;7.20;100.00
64610;BME280;51019;46.090;6.350;2023-04-03T07:29:29;96721.97;;;7.41;100.00
64610;BME280;51019;46.090;6.350;2023-04-03T07:31:57;96711.16;;;7.68;100.00
64610;BME280;51019;46.090;6.350;2023-04-03T07:34:27;96722.41;;;7.68;100.00
64610;BME280;51019;46.090;6.350;2023-04-03T07:36:55;96713.22;;;8.07;100.00
64610;BME280;51019;46.090;6.350;2023-04-03T07:39:23;96697.88;;;8.14;100.00
64610;BME280;51019;46.090;6.350;2023-04-03T07:41:50;96716.28;;;9.18;100.00
64610;BME280;51019;46.090;6.350;2023-04-03T07:44:18;96694.22;;;9.71;100.00
64610;BME280;51019;46.090;6.350;2023-04-03T07:46:45;96703.47;;;9.75;100.00
64610;BME280;51019;46.090;6.350;2023-04-03T07:49:13;96716.72;;;9.93;100.00
64610;BME280;51019;46.090;6.350;2023-04-03T07:51:43;96714.81;;;9.95;100.00
64610;BME280;51019;46.090;6.350;2023-04-03T07:54:12;96716.09;;;10.10;100.00
64610;BME280;51019;46.090;6.350;2023-04-03T07:56:39;96693.81;;;10.45;100.00
64610;BME280;51019;46.090;6.350;2023-04-03T07:59:08;96706.72;;;10.17;100.00
64610;BME280;51019;46.090;6.350;2023-04-03T08:01:36;96711.72;;;10.21;100.00
64610;BME280;51019;46.090;6.350;2023-04-03T08:04:03;96711.19;;;9.77;100.00
64610;BME280;51019;46.090;6.350;2023-04-03T08:06:31;96699.69;;;8.98;100.00
64610;BME280;51019;46.090;6.350;2023-04-03T08:09:03;96707.91;;;9.44;100.00
64610;BME280;51019;46.090;6.350;2023-04-03T08:11:31;96678.53;;;8.80;100.00
64610;BME280;51019;46.090;6.350;2023-04-03T08:13:58;96714.66;;;9.87;100.00
64610;BME280;51019;46.090;6.350;2023-04-03T08:16:27;96709.53;;;9.76;100.00
64610;BME280;51019;46.090;6.350;2023-04-03T08:18:54;96716.09;;;9.30;100.00
64610;BME280;51019;46.090;6.350;2023-04-03T08:21:22;96692.22;;;8.72;100.00
64610;BME280;51019;46.090;6.350;2023-04-03T08:23:51;96660.09;;;8.29;100.00
64610;BME280;51019;46.090;6.350;2023-04-03T08:26:21;96677.34;;;8.20;100.00
64610;BME280;51019;46.090;6.350;2023-04-03T08:28:48;96697.69;;;8.06;100.00
64610;BME280;51019;46.090;6.350;2023-04-03T08:31:18;96600.00;;;7.44;100.00
64610;BME280;51019;46.090;6.350;2023-04-03T08:33:47;96722.50;;;8.00;100.00
64610;BME280;51019;46.090;6.350;2023-04-03T08:36:19;96698.88;;;8.01;100.00
64610;BME280;51019;46.090;6.350;2023-04-03T08:38:47;96718.81;;;7.91;100.00
64610;BME280;51019;46.090;6.350;2023-04-03T08:41:18;96721.06;;;7.96;100.00
64610;BME280;51019;46.090;6.350;2023-04-03T08:44:00;96721.88;;;8.08;100.00
64610;BME280;51019;46.090;6.350;2023-04-03T08:46:38;96714.50;;;8.13;100.00
64610;BME280;51019;46.090;6.350;2023-04-03T08:49:10;96717.69;;;8.16;100.00
64610;BME280;51019;46.090;6.350;2023-04-03T08:51:41;96718.00;;;8.45;100.00
64610;BME280;51019;46.090;6.350;2023-04-03T08:54:25;96719.16;;;8.52;100.00
64610;BME280;51019;46.090;6.350;2023-04-03T08:56:54;96683.97;;;8.24;100.00
64610;BME280;51019;46.090;6.350;2023-04-03T08:59:28;96731.66;;;8.37;100.00
64610;BME280;51019;46.090;6.350;2023-04-03T09:01:59;96712.28;;;8.51;100.00
64610;BME280;51019;46.090;6.350;2023-04-03T09:04:31;96702.59;;;8.63;100.00
64610;BME280;51019;46.090;6.350;2023-04-03T09:07:04;96700.69;;;8.44;100.00
64610;BME280;51019;46.090;6.350;2023-04-03T09:09:36;96726.31;;;8.39;100.00
64610;BME280;51019;46.090;6.350;2023-04-03T09:12:15;96727.69;;;8.54;100.00
64610;BME280;51019;46.090;6.350;2023-04-03T09:14:52;96719.41;;;8.49;100.00
64610;BME280;51019;46.090;6.350;2023-04-03T09:17:30;96705.16;;;8.10;100.00
64610;BME280;51019;46.090;6.350;2023-04-03T09:20:07;96733.34;;;8.38;100.00
64610;BME280;51019;46.090;6.350;2023-04-03T09:22:40;96638.19;;;7.88;100.00
64610;BME280;51019;46.090;6.350;2023-04-03T09:25:14;96660.03;;;7.76;100.00
64610;BME280;51019;46.090;6.350;2023-04-03T09:27:42;96665.44;;;7.95;100.00
64610;BME280;51019;46.090;6.350;2023-04-03T09:30:16;96729.97;;;7.93;100.00
64610;BME280;51019;46.090;6.350;2023-04-03T09:32:45;96718.56;;;8.06;100.00
64610;BME280;51019;46.090;6.350;2023-04-03T09:35:19;96717.91;;;8.35;100.00
64610;BME280;51019;46.090;6.350;2023-04-03T09:37:50;96722.22;;;8.57;100.00
64610;BME280;51019;46.090;6.350;2023-04-03T09:40:32;96715.47;;;8.55;100.00
64610;BME280;51019;46.090;6.350;2023-04-03T09:43:02;96719.16;;;8.52;100.00
64610;BME280;51019;46.090;6.350;2023-04-03T09:45:34;96729.09;;;8.58;100.00
64610;BME280;51019;46.090;6.350;2023-04-03T09:48:15;96716.25;;;8.66;100.00
64610;BME280;51019;46.090;6.350;2023-04-03T09:50:57;96716.63;;;9.03;100.00
64610;BME280;51019;46.090;6.350;2023-04-03T09:53:31;96716.31;;;10.38;100.00
64610;BME280;51019;46.090;6.350;2023-04-03T09:56:00;96718.81;;;10.49;100.00
64610;BME280;51019;46.090;6.350;2023-04-03T09:58:30;96718.38;;;10.82;100.00
64610;BME280;51019;46.090;6.350;2023-04-03T10:01:02;96715.03;;;11.56;100.00
64610;BME280;51019;46.090;6.350;2023-04-03T10:03:31;96612.06;;;10.98;100.00
64610;BME280;51019;46.090;6.350;2023-04-03T10:06:01;96711.28;;;10.15;100.00
64610;BME280;51019;46.090;6.350;2023-04-03T10:08:30;96706.78;;;10.66;100.00
64610;BME280;51019;46.090;6.350;2023-04-03T10:11:12;96635.53;;;9.74;100.00
64610;BME280;51019;46.090;6.350;2023-04-03T10:13:51;96705.91;;;9.58;100.00
64610;BME280;51019;46.090;6.350;2023-04-03T10:16:25;96702.00;;;9.52;100.00
64610;BME280;51019;46.090;6.350;2023-04-03T10:19:03;96693.84;;;9.86;100.00
64610;BME280;51019;46.090;6.350;2023-04-03T10:21:40;96672.16;;;9.64;100.00
64610;BME280;51019;46.090;6.350;2023-04-03T10:24:12;96693.88;;;9.45;100.00
64610;BME280;51019;46.090;6.350;2023-04-03T10:26:51;96698.13;;;9.87;100.00
64610;BME280;51019;46.090;6.350;2023-04-03T10:29:34;96679.28;;;9.93;100.00
64610;BME280;51019;46.090;6.350;2023-04-03T10:32:10;96694.31;;;10.10;100.00
64610;BME280;51019;46.090;6.350;2023-04-03T10:34:43;96688.19;;;9.80;100.00
64610;BME280;51019;46.090;6.350;2023-04-03T10:37:18;96666.91;;;9.55;100.00
64610;BME280;51019;46.090;6.350;2023-04-03T10:39:54;96681.75;;;9.44;100.00
64610;BME280;51019;46.090;6.350;2023-04-03T10:42:29;96685.09;;;9.56;100.00
64610;BME280;51019;46.090;6.350;2023-04-03T10:45:18;96692.63;;;9.50;100.00
64610;BME280;51019;46.090;6.350;2023-04-03T10:47:55;96673.16;;;9.33;100.00
64610;BME280;51019;46.090;6.350;2023-04-03T10:50:38;96600.81;;;8.82;100.00
64610;BME280;51019;46.090;6.350;2023-04-03T10:53:17;96672.75;;;9.07;100.00
64610;BME280;51019;46.090;6.350;2023-04-03T10:55:53;96691.34;;;9.34;100.00
64610;BME280;51019;46.090;6.350;2023-04-03T10:58:27;96686.75;;;9.27;100.00
64610;BME280;51019;46.090;6.350;2023-04-03T11:01:01;96613.66;;;8.95;100.00
64610;BME280;51019;46.090;6.350;2023-04-03T11:03:36;96674.88;;;9.53;100.00
64610;BME280;51019;46.090;6.350;2023-04-03T11:06:08;96674.09;;;9.72;100.00
64610;BME280;51019;46.090;6.350;2023-04-03T11:08:42;96672.81;;;10.16;100.00
64610;BME280;51019;46.090;6.350;2023-04-03T11:11:15;96643.91;;;11.49;99.89
64610;BME280;51019;46.090;6.350;2023-04-03T11:13:48;96673.78;;;13.00;95.33
64610;BME280;51019;46.090;6.350;2023-04-03T11:16:21;96662.94;;;11.61;96.38
64610;BME280;51019;46.090;6.350;2023-04-03T11:18:56;96649.38;;;10.82;96.64
64610;BME280;51019;46.090;6.350;2023-04-03T11:21:29;96668.88;;;10.60;98.96
64610;BME280;51019;46.090;6.350;2023-04-03T11:24:03;96664.31;;;10.24;100.00
64610;BME280;51019;46.090;6.350;2023-04-03T11:26:38;96660.75;;;10.25;100.00
64610;BME280;51019;46.090;6.350;2023-04-03T11:29:11;96661.22;;;10.09;100.00
64610;BME280;51019;46.090;6.350;2023-04-03T11:31:55;96658.44;;;9.81;100.00
64610;BME280;51019;46.090;6.350;2023-04-03T11:34:33;96656.00;;;9.99;100.00
64610;BME280;51019;46.090;6.350;2023-04-03T11:37:06;96655.13;;;9.70;100.00
64610;BME280;51019;46.090;6.350;2023-04-03T11:39:39;96650.75;;;9.99;100.00
64610;BME280;51019;46.090;6.350;2023-04-03T11:42:17;96642.63;;;10.12;100.00
64610;BME280;51019;46.090;6.350;2023-04-03T11:45:23;96643.91;;;10.56;100.00
64610;BME280;51019;46.090;6.350;2023-04-03T11:47:53;96647.72;;;10.90;98.46
64610;BME280;51019;46.090;6.350;2023-04-03T11:50:39;96636.94;;;10.84;96.29
64610;BME280;51019;46.090;6.350;2023-04-03T11:53:28;96646.34;;;10.77;96.79
64610;BME280;51019;46.090;6.350;2023-04-03T11:55:59;96645.25;;;10.79;96.36
64610;BME280;51019;46.090;6.350;2023-04-03T11:58:28;96645.06;;;9.94;100.00
64610;BME280;51019;46.090;6.350;2023-04-03T12:01:02;96648.56;;;10.14;98.75
64610;BME280;51019;46.090;6.350;2023-04-03T12:10:18;96628.19;;;10.37;95.30
64610;BME280;51019;46.090;6.350;2023-04-03T12:12:56;96628.16;;;10.17;96.31
64610;BME280;51019;46.090;6.350;2023-04-03T12:15:44;96624.06;;;10.25;97.17
64610;BME280;51019;46.090;6.350;2023-04-03T12:21:18;96619.72;;;9.85;98.15
64610;BME280;51019;46.090;6.350;2023-04-03T12:24:02;96628.00;;;10.00;100.00
64610;BME280;51019;46.090;6.350;2023-04-03T12:26:36;96623.03;;;9.97;96.47
64610;BME280;51019;46.090;6.350;2023-04-03T12:29:15;96589.97;;;10.05;95.44
64610;BME280;51019;46.090;6.350;2023-04-03T12:31:54;96602.28;;;10.24;98.65
64610;BME280;51019;46.090;6.350;2023-04-03T12:34:45;96611.66;;;10.27;94.88
64610;BME280;51019;46.090;6.350;2023-04-03T12:37:23;96611.34;;;10.10;95.68
64610;BME280;51019;46.090;6.350;2023-04-03T12:40:01;96612.34;;;10.48;92.66
64610;BME280;51019;46.090;6.350;2023-04-03T12:43:09;96607.75;;;10.60;92.78
64610;BME280;51019;46.090;6.350;2023-04-03T12:45:48;96605.28;;;10.58;95.17
64610;BME280;51019;46.090;6.350;2023-04-03T12:48:22;96601.19;;;10.27;91.44
64610;BME280;51019;46.090;6.350;2023-04-03T12:50:50;96565.31;;;10.46;92.10
64610;BME280;51019;46.090;6.350;2023-04-03T12:53:19;96597.88;;;10.90;91.57
64610;BME280;51019;46.090;6.350;2023-04-03T12:55:54;96594.41;;;11.00;90.86
64610;BME280;51019;46.090;6.350;2023-04-03T12:58:25;96569.13;;;10.52;89.46
64610;BME280;51019;46.090;6.350;2023-04-03T13:01:01;96589.31;;;10.23;88.77
64610;BME280;51019;46.090;6.350;2023-04-03T13:03:30;96581.28;;;10.43;89.65
64610;BME280;51019;46.090;6.350;2023-04-03T13:06:00;96569.72;;;10.07;89.60
64610;BME280;51019;46.090;6.350;2023-04-03T13:08:29;96595.09;;;10.36;87.34
64610;BME280;51019;46.090;6.350;2023-04-03T13:10:59;96592.91;;;10.22;88.54
64610;BME280;51019;46.090;6.350;2023-04-03T13:13:30;96563.94;;;10.33;90.86
64610;BME280;51019;46.090;6.350;2023-04-03T13:15:57;96530.19;;;10.20;90.49
64610;BME280;51019;46.090;6.350;2023-04-03T13:18:28;96579.94;;;10.30;88.46
64610;BME280;51019;46.090;6.350;2023-04-03T13:21:01;96579.22;;;10.47;88.33
64610;BME280;51019;46.090;6.350;2023-04-03T13:23:29;96583.38;;;10.49;88.33
64610;BME280;51019;46.090;6.350;2023-04-03T13:25:57;96537.59;;;10.44;85.07
64610;BME280;51019;46.090;6.350;2023-04-03T13:28:31;96566.25;;;10.55;86.37